createdAt,value
2022-08-26T00:00:11.953Z,67.80
2022-08-26T00:03:01.338Z,67.80
2022-08-26T00:05:51.035Z,67.90
2022-08-26T00:08:39.543Z,68.40
2022-08-26T00:11:29.850Z,68.70
2022-08-26T00:14:18.438Z,68.80
2022-08-26T00:17:08.663Z,68.90
2022-08-26T00:19:56.617Z,68.60
2022-08-26T00:22:45.250Z,69.00
2022-08-26T00:25:33.418Z,69.00
2022-08-26T00:28:21.764Z,68.70
2022-08-26T00:31:10.851Z,68.50
2022-08-26T00:34:00.830Z,68.20
2022-08-26T00:36:51.822Z,68.20
2022-08-26T00:39:39.903Z,68.30
2022-08-26T00:42:28.122Z,68.10
2022-08-26T00:45:16.738Z,68.60
2022-08-26T00:48:07.888Z,68.80
2022-08-26T00:51:02.869Z,68.00
2022-08-26T00:53:57.183Z,69.30
2022-08-26T00:56:54.063Z,69.40
2022-08-26T00:59:42.276Z,69.00
2022-08-26T01:02:30.740Z,69.20
2022-08-26T01:05:20.739Z,69.30
2022-08-26T01:08:10.536Z,68.90
2022-08-26T01:11:00.425Z,68.80
2022-08-26T01:13:50.484Z,69.10
2022-08-26T01:16:39.180Z,69.20
2022-08-26T01:19:36.286Z,69.30
2022-08-26T01:22:29.614Z,70.10
2022-08-26T01:25:20.884Z,70.00
2022-08-26T01:28:15.228Z,69.90
2022-08-26T01:31:05.928Z,70.30
2022-08-26T01:34:03.456Z,69.90
2022-08-26T01:36:54.433Z,70.00
2022-08-26T01:39:43.490Z,70.30
2022-08-26T01:42:34.566Z,70.50
2022-08-26T01:45:27.492Z,70.50
2022-08-26T01:48:21.089Z,70.90
2022-08-26T01:51:12.620Z,70.70
2022-08-26T01:54:03.120Z,70.70
2022-08-26T01:56:52.969Z,70.00
2022-08-26T01:59:42.514Z,70.60
2022-08-26T02:02:31.325Z,70.00
2022-08-26T02:05:22.765Z,70.00
2022-08-26T02:08:10.865Z,70.30
2022-08-26T02:10:59.073Z,70.30
2022-08-26T02:13:51.105Z,70.10
2022-08-26T02:16:43.654Z,70.60
2022-08-26T02:19:35.068Z,70.70
2022-08-26T02:22:25.477Z,71.10
2022-08-26T02:25:21.153Z,70.90
2022-08-26T02:28:11.063Z,70.60
2022-08-26T02:30:58.875Z,70.40
2022-08-26T02:33:49.014Z,70.80
2022-08-26T02:36:37.082Z,70.50
2022-08-26T02:39:25.140Z,70.90
2022-08-26T02:42:13.103Z,70.80
2022-08-26T02:45:01.686Z,71.20
2022-08-26T02:47:51.574Z,71.20
2022-08-26T02:50:42.213Z,70.90
2022-08-26T02:53:32.126Z,70.90
2022-08-26T02:56:23.700Z,70.30
2022-08-26T02:59:12.727Z,70.50
2022-08-26T03:02:00.682Z,71.10
2022-08-26T03:04:57.807Z,70.70
2022-08-26T03:07:51.624Z,71.20
2022-08-26T03:10:39.643Z,71.10
2022-08-26T03:13:28.196Z,71.30
2022-08-26T03:16:16.779Z,71.40
2022-08-26T03:19:08.982Z,71.30
2022-08-26T03:21:58.009Z,71.60
2022-08-26T03:24:47.459Z,71.70
2022-08-26T03:27:35.957Z,72.10
2022-08-26T03:30:45.455Z,72.30
2022-08-26T03:33:33.981Z,71.80
2022-08-26T03:36:23.053Z,72.00
2022-08-26T03:39:12.766Z,72.20
2022-08-26T03:42:02.119Z,72.30
2022-08-26T03:44:51.630Z,72.40
2022-08-26T03:47:39.642Z,71.30
2022-08-26T03:50:28.358Z,72.10
2022-08-26T03:53:16.437Z,72.30
2022-08-26T03:56:08.594Z,72.50
2022-08-26T03:58:57.986Z,72.80
2022-08-26T04:01:46.507Z,72.90
2022-08-26T04:04:37.521Z,72.60
2022-08-26T04:07:26.114Z,72.90
2022-08-26T04:10:16.826Z,73.20
2022-08-26T04:13:08.508Z,73.20
2022-08-26T04:15:57.977Z,72.80
2022-08-26T04:18:46.820Z,73.40
2022-08-26T04:21:35.243Z,73.10
2022-08-26T04:24:25.797Z,73.10
2022-08-26T04:27:14.014Z,74.00
2022-08-26T04:30:01.823Z,72.90
2022-08-26T04:32:51.610Z,72.60
2022-08-26T04:35:39.758Z,73.10
2022-08-26T04:38:31.388Z,73.30
2022-08-26T04:41:19.712Z,73.50
2022-08-26T04:44:07.878Z,73.80
2022-08-26T04:46:56.626Z,74.10
2022-08-26T04:49:45.982Z,73.60
2022-08-26T04:52:33.970Z,73.90
2022-08-26T04:55:21.574Z,73.40
2022-08-26T04:58:26.568Z,73.70
2022-08-26T05:01:14.491Z,73.40
2022-08-26T05:04:05.013Z,73.00
2022-08-26T05:07:02.758Z,72.70
2022-08-26T05:09:50.794Z,73.30
2022-08-26T05:12:38.827Z,73.80
2022-08-26T05:15:27.424Z,74.10
2022-08-26T05:18:19.873Z,74.30
2022-08-26T05:21:09.180Z,74.40
2022-08-26T05:23:58.929Z,74.10
2022-08-26T05:26:47.299Z,74.10
2022-08-26T05:29:35.732Z,74.00
2022-08-26T05:32:23.736Z,74.10
2022-08-26T05:35:12.084Z,74.70
2022-08-26T05:38:00.731Z,73.60
2022-08-26T05:41:04.082Z,74.10
2022-08-26T05:43:54.347Z,74.60
2022-08-26T05:46:44.104Z,74.40
2022-08-26T05:49:32.100Z,74.70
2022-08-26T05:52:20.727Z,74.60
2022-08-26T05:55:09.494Z,74.60
2022-08-26T05:57:59.249Z,75.00
2022-08-26T06:01:00.934Z,74.70
2022-08-26T06:03:52.877Z,75.40
2022-08-26T06:06:41.732Z,75.20
2022-08-26T06:09:30.781Z,74.30
2022-08-26T06:12:19.006Z,74.90
2022-08-26T06:15:10.061Z,75.00
2022-08-26T06:17:57.954Z,75.40
2022-08-26T06:20:57.182Z,75.30
2022-08-26T06:24:05.988Z,75.50
2022-08-26T06:26:57.032Z,76.10
2022-08-26T06:29:44.906Z,75.70
2022-08-26T06:32:34.218Z,76.10
2022-08-26T06:35:23.091Z,76.00
2022-08-26T06:38:12.121Z,76.50
2022-08-26T06:41:00.215Z,76.90
2022-08-26T06:43:49.462Z,76.50
2022-08-26T06:46:37.882Z,76.60
2022-08-26T06:49:27.799Z,76.70
2022-08-26T06:52:19.951Z,76.20
2022-08-26T06:55:11.447Z,76.00
2022-08-26T06:57:59.760Z,76.50
2022-08-26T07:00:47.640Z,76.10
2022-08-26T07:03:39.735Z,76.10
2022-08-26T07:06:29.743Z,76.00
2022-08-26T07:09:18.399Z,76.00
2022-08-26T07:12:06.942Z,76.50
2022-08-26T07:14:55.164Z,79.10
2022-08-26T07:17:45.804Z,81.10
2022-08-26T07:20:33.533Z,81.70
2022-08-26T07:23:23.093Z,81.70
2022-08-26T07:26:16.391Z,83.10
2022-08-26T07:29:05.361Z,83.30
2022-08-26T07:31:52.920Z,82.20
2022-08-26T07:34:41.803Z,83.00
2022-08-26T07:37:30.565Z,83.20
2022-08-26T07:40:26.801Z,84.30
2022-08-26T07:43:14.467Z,85.00
2022-08-26T07:46:02.855Z,85.00
2022-08-26T07:48:52.472Z,84.90
2022-08-26T07:51:40.968Z,85.30
2022-08-26T07:54:28.750Z,84.90
2022-08-26T07:57:19.080Z,85.10
2022-08-26T08:00:10.068Z,84.90
2022-08-26T08:03:00.794Z,85.20
2022-08-26T08:05:49.140Z,85.60
2022-08-26T08:08:36.977Z,84.90
2022-08-26T08:11:26.461Z,84.70
2022-08-26T08:14:15.506Z,83.60
2022-08-26T08:17:05.848Z,83.20
2022-08-26T08:19:54.484Z,83.50
2022-08-26T08:22:42.592Z,84.10
2022-08-26T08:25:31.322Z,84.20
2022-08-26T08:28:18.923Z,83.90
2022-08-26T08:31:11.437Z,84.20
2022-08-26T08:33:59.329Z,82.00
2022-08-26T08:36:47.418Z,81.50
2022-08-26T08:39:35.209Z,80.30
2022-08-26T08:42:40.165Z,80.60
2022-08-26T08:45:37.041Z,78.20
2022-08-26T08:48:29.567Z,79.80
2022-08-26T08:51:27.705Z,79.80
2022-08-26T08:54:16.193Z,79.60
2022-08-26T08:57:12.726Z,79.10
2022-08-26T09:00:11.232Z,77.80
2022-08-26T09:03:03.144Z,78.70
2022-08-26T09:05:55.627Z,78.30
2022-08-26T09:08:45.314Z,78.00
2022-08-26T09:11:33.091Z,77.40
2022-08-26T09:14:20.867Z,77.40
2022-08-26T09:17:21.290Z,77.30
2022-08-26T09:20:20.716Z,76.90
2022-08-26T09:23:11.338Z,76.20
2022-08-26T09:26:03.121Z,75.60
2022-08-26T09:28:58.519Z,75.70
2022-08-26T09:31:47.067Z,74.90
2022-08-26T09:34:36.255Z,75.20
2022-08-26T09:37:39.861Z,75.30
2022-08-26T09:40:34.973Z,74.50
2022-08-26T09:43:23.545Z,73.70
2022-08-26T09:46:18.755Z,74.10
2022-08-26T09:49:36.381Z,73.00
2022-08-26T09:52:27.951Z,72.70
2022-08-26T09:55:23.325Z,72.90
2022-08-26T09:58:16.259Z,73.30
2022-08-26T10:01:08.254Z,73.50
2022-08-26T10:04:08.160Z,74.50
2022-08-26T10:07:02.719Z,74.10
2022-08-26T10:09:51.748Z,73.90
2022-08-26T10:12:47.221Z,72.70
2022-08-26T10:15:50.628Z,72.40
2022-08-26T10:18:43.717Z,71.70
2022-08-26T10:21:38.483Z,71.70
2022-08-26T10:24:36.096Z,72.80
2022-08-26T10:27:48.448Z,72.70
2022-08-26T10:30:47.333Z,71.70
2022-08-26T10:33:35.450Z,72.00
2022-08-26T10:37:10.646Z,72.30
2022-08-26T10:39:58.968Z,72.70
2022-08-26T10:42:54.871Z,71.80
2022-08-26T10:45:50.520Z,72.50
2022-08-26T10:48:48.098Z,72.70
2022-08-26T10:51:42.395Z,73.30
2022-08-26T10:54:40.703Z,71.20
2022-08-26T10:57:39.983Z,72.10
2022-08-26T11:00:52.696Z,71.40
2022-08-26T11:03:54.819Z,72.30
2022-08-26T11:06:46.788Z,72.00
2022-08-26T11:09:47.903Z,72.90
2022-08-26T11:12:57.519Z,72.90
2022-08-26T11:16:04.152Z,71.60
2022-08-26T11:18:56.026Z,71.90
2022-08-26T11:22:06.086Z,72.50
2022-08-26T11:25:14.526Z,71.90
2022-08-26T11:28:02.804Z,71.60
2022-08-26T11:30:57.547Z,72.00
2022-08-26T11:33:51.337Z,72.00
2022-08-26T11:37:01.798Z,71.20
2022-08-26T11:39:57.203Z,70.90
2022-08-26T11:42:50.703Z,71.20
2022-08-26T11:45:41.969Z,71.80
2022-08-26T11:48:34.085Z,71.30
2022-08-26T11:51:26.260Z,71.90
2022-08-26T11:54:18.340Z,71.80
2022-08-26T11:57:23.058Z,71.10
2022-08-26T12:00:15.841Z,70.60
2022-08-26T12:03:09.568Z,70.50
2022-08-26T12:05:57.750Z,69.90
2022-08-26T12:08:57.418Z,70.50
2022-08-26T12:12:13.233Z,69.10
2022-08-26T12:15:25.819Z,70.00
2022-08-26T12:18:29.999Z,70.00
2022-08-26T12:21:28.480Z,69.40
2022-08-26T12:24:23.226Z,70.20
2022-08-26T12:27:20.686Z,70.60
2022-08-26T12:30:14.320Z,70.70
2022-08-26T12:33:13.325Z,70.30
2022-08-26T12:36:11.227Z,69.60
2022-08-26T12:39:10.430Z,70.50
2022-08-26T12:42:00.949Z,69.20
2022-08-26T12:44:59.556Z,69.60
2022-08-26T12:47:48.051Z,69.90
2022-08-26T12:50:39.086Z,69.50
2022-08-26T12:53:29.503Z,69.10
2022-08-26T12:56:31.536Z,68.30
2022-08-26T12:59:25.721Z,68.30
2022-08-26T13:02:39.855Z,66.50
2022-08-26T13:05:34.001Z,67.30
2022-08-26T13:08:29.214Z,67.20
2022-08-26T13:11:20.702Z,67.00
2022-08-26T13:14:10.880Z,66.00
2022-08-26T13:16:59.139Z,65.60
2022-08-26T13:19:48.368Z,65.90
2022-08-26T13:22:36.778Z,65.10
2022-08-26T13:25:24.444Z,66.20
2022-08-26T13:28:12.259Z,66.30
2022-08-26T13:31:00.691Z,66.00
2022-08-26T13:33:52.974Z,65.60
2022-08-26T13:36:45.033Z,65.90
2022-08-26T13:39:33.015Z,65.70
2022-08-26T13:42:20.852Z,65.20
2022-08-26T13:45:10.155Z,65.80
2022-08-26T13:47:58.843Z,64.90
2022-08-26T13:50:47.614Z,65.80
2022-08-26T13:53:36.717Z,65.00
2022-08-26T13:56:27.577Z,65.50
2022-08-26T13:59:15.405Z,65.10
2022-08-26T14:02:04.092Z,64.90
2022-08-26T14:04:51.951Z,64.70
2022-08-26T14:07:40.634Z,64.50
2022-08-26T14:10:29.791Z,65.10
2022-08-26T14:13:18.562Z,64.90
2022-08-26T14:16:13.443Z,64.90
2022-08-26T14:19:02.492Z,64.70
2022-08-26T14:21:50.703Z,65.00
2022-08-26T14:24:38.655Z,64.50
2022-08-26T14:27:27.941Z,64.10
2022-08-26T14:30:16.298Z,64.00
2022-08-26T14:33:04.372Z,64.90
2022-08-26T14:35:53.167Z,63.50
2022-08-26T14:38:42.058Z,62.70
2022-08-26T14:41:31.550Z,62.10
2022-08-26T14:44:21.433Z,62.80
2022-08-26T14:47:11.742Z,62.10
2022-08-26T14:49:59.475Z,62.50
2022-08-26T14:53:04.654Z,63.30
2022-08-26T14:55:52.572Z,63.50
2022-08-26T14:58:40.120Z,64.00
2022-08-26T15:01:31.057Z,66.00
2022-08-26T15:04:19.670Z,68.30
2022-08-26T15:07:08.470Z,68.70
2022-08-26T15:10:00.461Z,68.80
2022-08-26T15:12:48.240Z,67.90
2022-08-26T15:15:37.471Z,67.90
2022-08-26T15:18:26.709Z,68.60
2022-08-26T15:21:14.658Z,68.60
2022-08-26T15:24:05.639Z,69.30
2022-08-26T15:26:54.506Z,69.50
2022-08-26T15:29:42.464Z,70.10
2022-08-26T15:32:30.829Z,70.70
2022-08-26T15:35:20.089Z,71.20
2022-08-26T15:38:08.321Z,72.00
2022-08-26T15:40:57.800Z,72.30
2022-08-26T15:43:48.874Z,72.90
2022-08-26T15:46:38.521Z,73.10
2022-08-26T15:49:26.704Z,73.70
2022-08-26T15:52:17.776Z,74.10
2022-08-26T15:55:07.150Z,74.80
2022-08-26T15:57:55.807Z,74.60
2022-08-26T16:00:44.964Z,74.30
2022-08-26T16:03:32.900Z,74.50
2022-08-26T16:06:24.425Z,74.60
2022-08-26T16:09:13.566Z,76.00
2022-08-26T16:12:01.678Z,76.10
2022-08-26T16:14:51.475Z,76.00
2022-08-26T16:17:40.856Z,76.70
2022-08-26T16:20:28.957Z,76.00
2022-08-26T16:23:17.151Z,76.20
2022-08-26T16:26:11.729Z,75.90
2022-08-26T16:28:59.546Z,76.00
2022-08-26T16:31:50.603Z,75.70
2022-08-26T16:34:38.205Z,75.00
2022-08-26T16:37:39.401Z,75.60
2022-08-26T16:40:27.551Z,75.60
2022-08-26T16:43:17.226Z,75.50
2022-08-26T16:46:07.992Z,76.00
2022-08-26T16:48:57.959Z,76.50
2022-08-26T16:51:46.946Z,76.30
2022-08-26T16:54:34.933Z,75.50
2022-08-26T16:57:23.052Z,75.50
2022-08-26T17:00:17.768Z,75.40
2022-08-26T17:03:06.013Z,75.70
2022-08-26T17:05:54.367Z,75.90
2022-08-26T17:08:43.678Z,76.20
2022-08-26T17:11:31.559Z,76.60
2022-08-26T17:14:19.535Z,77.20
2022-08-26T17:17:08.945Z,77.20
2022-08-26T17:19:57.137Z,77.60
2022-08-26T17:22:49.691Z,76.90
2022-08-26T17:25:37.774Z,76.40
2022-08-26T17:28:25.603Z,77.00
2022-08-26T17:31:14.939Z,77.70
2022-08-26T17:34:04.252Z,78.50
2022-08-26T17:36:52.912Z,78.70
2022-08-26T17:39:44.002Z,78.70
2022-08-26T17:42:31.934Z,78.80
2022-08-26T17:48:13.619Z,79.00
2022-08-26T17:51:07.736Z,79.40
2022-08-26T17:53:55.620Z,79.70
2022-08-26T17:56:43.441Z,78.80
2022-08-26T17:59:31.329Z,79.10
2022-08-26T18:02:20.393Z,79.20
2022-08-26T18:05:11.568Z,79.20
2022-08-26T18:08:00.997Z,79.40
2022-08-26T18:10:49.307Z,79.60
2022-08-26T18:13:37.413Z,79.40
2022-08-26T18:16:34.132Z,79.40
2022-08-26T18:19:22.063Z,79.20
2022-08-26T18:22:10.157Z,79.40
2022-08-26T18:25:06.780Z,79.80
2022-08-26T18:27:54.483Z,80.10
2022-08-26T18:30:44.304Z,79.90
2022-08-26T18:33:32.186Z,80.10
2022-08-26T18:36:22.158Z,79.80
2022-08-26T18:39:11.573Z,79.40
2022-08-26T18:42:00.789Z,80.00
2022-08-26T18:44:51.913Z,80.00
2022-08-26T18:47:40.217Z,80.30
2022-08-26T18:50:28.168Z,80.20
2022-08-26T18:53:16.107Z,80.40
2022-08-26T18:56:03.877Z,80.50
2022-08-26T18:58:53.382Z,80.70
2022-08-26T19:01:42.876Z,81.00
2022-08-26T19:04:30.799Z,81.20
2022-08-26T19:07:18.938Z,81.20
2022-08-26T19:10:07.828Z,81.30
2022-08-26T19:13:00.126Z,81.40
2022-08-26T19:15:50.046Z,82.10
2022-08-26T19:18:37.562Z,81.90
2022-08-26T19:21:25.877Z,81.60
2022-08-26T19:24:17.650Z,81.80
2022-08-26T19:27:06.134Z,82.10
2022-08-26T19:29:54.116Z,82.00
2022-08-26T19:32:43.093Z,82.10
2022-08-26T19:35:30.723Z,82.40
2022-08-26T19:38:18.426Z,82.20
2022-08-26T19:41:06.647Z,82.10
2022-08-26T19:43:54.588Z,82.30
2022-08-26T19:46:46.428Z,82.40
2022-08-26T19:49:36.042Z,82.60
2022-08-26T19:52:29.761Z,83.00
2022-08-26T19:55:20.172Z,82.50
2022-08-26T19:58:08.079Z,82.60
2022-08-26T20:00:55.814Z,82.50
2022-08-26T20:03:44.857Z,82.80
2022-08-26T20:06:34.018Z,83.00
2022-08-26T20:09:21.706Z,83.20
2022-08-26T20:12:10.735Z,82.80
2022-08-26T20:14:58.839Z,82.80
2022-08-26T20:17:46.632Z,83.00
2022-08-26T20:20:54.837Z,83.30
2022-08-26T20:23:45.917Z,83.30
2022-08-26T20:26:36.090Z,83.40
2022-08-26T20:29:24.014Z,83.00
2022-08-26T20:32:12.682Z,82.50
2022-08-26T20:35:01.055Z,82.60
2022-08-26T20:37:48.748Z,82.10
2022-08-26T20:40:37.940Z,82.30
2022-08-26T20:43:25.921Z,82.70
2022-08-26T20:46:17.968Z,82.70
2022-08-26T20:49:07.671Z,83.10
2022-08-26T20:51:55.908Z,83.10
2022-08-26T20:54:43.849Z,83.30
2022-08-26T20:57:32.837Z,83.70
2022-08-26T21:00:23.021Z,84.30
2022-08-26T21:03:14.458Z,84.30
2022-08-26T21:06:03.270Z,84.30
2022-08-26T21:08:51.600Z,84.40
2022-08-26T21:11:42.504Z,84.40
2022-08-26T21:14:36.056Z,84.50
2022-08-26T21:17:24.035Z,84.70
2022-08-26T21:20:11.969Z,84.50
2022-08-26T21:23:00.105Z,84.70
2022-08-26T21:25:49.716Z,84.70
2022-08-26T21:28:40.143Z,84.50
2022-08-26T21:31:29.796Z,84.60
2022-08-26T21:34:19.538Z,84.70
2022-08-26T21:37:15.281Z,84.80
2022-08-26T21:40:06.273Z,84.60
2022-08-26T21:42:54.711Z,84.70
2022-08-26T21:45:42.517Z,84.30
2022-08-26T21:48:34.564Z,84.80
2022-08-26T21:51:26.133Z,85.00
2022-08-26T21:54:14.737Z,84.90
2022-08-26T21:57:02.410Z,84.90
2022-08-26T21:59:50.355Z,84.50
2022-08-26T22:02:38.185Z,84.80
2022-08-26T22:05:27.372Z,84.50
2022-08-26T22:08:15.676Z,85.20
2022-08-26T22:11:04.732Z,85.20
2022-08-26T22:13:53.338Z,84.90
2022-08-26T22:16:41.189Z,84.80
2022-08-26T22:19:46.308Z,84.70
2022-08-26T22:22:36.220Z,84.90
2022-08-26T22:25:24.239Z,84.90
2022-08-26T22:28:12.186Z,84.90
2022-08-26T22:31:00.033Z,85.00
2022-08-26T22:33:47.771Z,85.20
2022-08-26T22:36:36.185Z,85.10
2022-08-26T22:39:32.209Z,84.70
2022-08-26T22:42:20.062Z,85.50
2022-08-26T22:45:10.816Z,85.20
2022-08-26T22:47:58.702Z,84.70
2022-08-26T22:50:47.754Z,84.70
2022-08-26T22:53:35.945Z,84.90
2022-08-26T22:56:30.663Z,85.10
2022-08-26T22:59:18.741Z,85.70
2022-08-26T23:02:06.802Z,85.60
2022-08-26T23:04:56.016Z,85.40
2022-08-26T23:07:43.678Z,86.30
2022-08-26T23:10:32.659Z,85.90
2022-08-26T23:13:22.295Z,85.80
2022-08-26T23:16:13.267Z,86.10
2022-08-26T23:19:01.215Z,86.00
2022-08-26T23:21:49.622Z,85.60
2022-08-26T23:24:37.383Z,86.10
2022-08-26T23:27:25.352Z,85.90
2022-08-26T23:30:19.348Z,86.20
2022-08-26T23:33:07.329Z,86.30
2022-08-26T23:35:55.461Z,85.80
2022-08-26T23:38:43.288Z,86.00
2022-08-26T23:41:31.086Z,85.90
2022-08-26T23:44:20.764Z,86.00
2022-08-26T23:47:10.360Z,86.40
2022-08-26T23:49:58.209Z,86.80
2022-08-26T23:53:03.409Z,86.30
2022-08-26T23:55:54.144Z,86.30
2022-08-26T23:58:41.899Z,86.80
